createdAt,value
2019-05-09T00:04:24.321Z,3.80
2019-05-09T00:07:15.112Z,3.80
2019-05-09T00:09:46.801Z,3.40
2019-05-09T00:12:37.707Z,3.20
2019-05-09T00:18:09.386Z,5.33
2019-05-09T00:23:46.768Z,4.00
2019-05-09T00:26:33.752Z,4.00
2019-05-09T00:32:17.095Z,4.00
2019-05-09T00:35:07.569Z,4.80
2019-05-09T00:37:58.036Z,4.00
2019-05-09T00:40:34.140Z,6.00
2019-05-09T00:43:07.636Z,4.00
2019-05-09T00:45:58.075Z,1.40
2019-05-09T00:51:20.592Z,3.00
2019-05-09T00:53:53.486Z,4.00
2019-05-09T00:56:25.077Z,4.00
2019-05-09T00:58:55.916Z,3.00
2019-05-09T01:01:27.717Z,4.00
2019-05-09T01:03:58.437Z,3.00
2019-05-09T01:06:43.425Z,5.60
2019-05-09T01:09:43.967Z,5.33
2019-05-09T01:12:15.431Z,4.33
2019-05-09T01:15:06.110Z,4.00
2019-05-09T01:20:20.221Z,3.00
2019-05-09T01:22:53.852Z,5.33
2019-05-09T01:25:25.285Z,3.80
2019-05-09T01:27:56.323Z,3.00
2019-05-09T01:30:46.299Z,6.00
2019-05-09T01:37:05.580Z,4.00
2019-05-09T01:42:19.506Z,3.67
2019-05-09T01:44:53.321Z,3.00
2019-05-09T01:47:25.543Z,3.00
2019-05-09T01:49:58.496Z,3.60
2019-05-09T01:52:53.215Z,4.40
2019-05-09T01:55:43.276Z,3.00
2019-05-09T01:58:35.407Z,3.60
2019-05-09T02:10:05.318Z,3.00
2019-05-09T02:12:56.064Z,3.40
2019-05-09T02:16:05.585Z,5.60
2019-05-09T02:19:14.970Z,3.33
2019-05-09T02:21:30.355Z,4.00
2019-05-09T02:27:05.558Z,4.00
2019-05-09T02:29:37.307Z,4.00
2019-05-09T02:38:02.991Z,3.00
2019-05-09T02:40:53.775Z,3.60
2019-05-09T02:43:38.683Z,3.80
2019-05-09T02:49:38.853Z,4.00
2019-05-09T02:52:20.441Z,4.00
2019-05-09T02:55:10.730Z,6.00
2019-05-09T03:04:02.423Z,7.20
2019-05-09T03:06:33.343Z,3.67
2019-05-09T03:09:04.564Z,6.00
2019-05-09T03:11:54.249Z,3.67
2019-05-09T03:14:28.411Z,4.00
2019-05-09T03:16:58.769Z,4.00
2019-05-09T03:19:31.530Z,4.40
2019-05-09T03:25:31.513Z,6.00
2019-05-09T03:33:51.271Z,4.00
2019-05-09T03:36:22.184Z,7.00
2019-05-09T03:38:53.188Z,3.67
2019-05-09T03:41:43.033Z,7.00
2019-05-09T03:44:13.934Z,4.00
2019-05-09T03:53:09.979Z,4.00
2019-05-09T03:55:41.732Z,3.60
2019-05-09T03:58:18.329Z,3.80
2019-05-09T04:01:01.680Z,4.00
2019-05-09T04:03:33.406Z,5.20
2019-05-09T04:06:08.262Z,3.60
2019-05-09T04:08:39.362Z,5.60
2019-05-09T04:11:22.827Z,3.00
2019-05-09T04:16:32.590Z,5.60
2019-05-09T04:19:22.249Z,4.00
2019-05-09T04:21:53.161Z,4.00
2019-05-09T04:30:15.433Z,4.00
2019-05-09T04:35:38.718Z,4.40
2019-05-09T04:38:10.449Z,4.80
2019-05-09T04:43:32.182Z,4.00
2019-05-09T04:48:40.574Z,4.00
2019-05-09T04:51:30.498Z,5.67
2019-05-09T04:54:01.438Z,4.00
2019-05-09T04:56:53.695Z,5.33
2019-05-09T04:59:23.652Z,6.67
2019-05-09T05:02:32.384Z,4.00
2019-05-09T05:05:18.218Z,5.40
2019-05-09T05:07:37.685Z,5.33
2019-05-09T05:10:28.996Z,7.00
2019-05-09T05:13:39.143Z,4.33
2019-05-09T05:16:10.075Z,4.67
2019-05-09T05:18:40.921Z,7.67
2019-05-09T05:21:37.830Z,4.20
2019-05-09T05:24:28.020Z,7.00
2019-05-09T05:26:59.014Z,5.00
2019-05-09T05:29:32.337Z,7.00
2019-05-09T05:33:00.880Z,5.80
2019-05-09T05:39:37.496Z,5.80
2019-05-09T05:41:58.635Z,5.33
2019-05-09T05:47:58.851Z,5.67
2019-05-09T05:53:18.291Z,5.00
2019-05-09T05:55:52.657Z,3.60
2019-05-09T05:58:42.138Z,5.67
2019-05-09T06:01:32.310Z,5.00
2019-05-09T06:04:08.073Z,5.00
2019-05-09T06:06:41.686Z,6.33
2019-05-09T06:09:51.844Z,4.00
2019-05-09T06:12:42.650Z,5.00
2019-05-09T06:21:45.307Z,5.80
2019-05-09T06:24:24.736Z,4.80
2019-05-09T06:27:37.578Z,6.33
2019-05-09T06:33:20.659Z,5.33
2019-05-09T06:38:58.427Z,4.00
2019-05-09T06:41:48.696Z,3.20
2019-05-09T06:50:24.069Z,4.00
2019-05-09T06:53:15.082Z,3.60
2019-05-09T06:56:00.711Z,4.00
2019-05-09T06:58:41.264Z,5.00
2019-05-09T07:01:51.187Z,4.40
2019-05-09T07:07:28.157Z,4.00
2019-05-09T07:10:20.445Z,4.00
2019-05-09T07:12:51.294Z,4.00
2019-05-09T07:16:02.284Z,4.00
2019-05-09T07:19:28.736Z,4.00
2019-05-09T07:22:09.317Z,4.00
2019-05-09T07:25:06.491Z,4.80
2019-05-09T07:28:11.845Z,5.00
2019-05-09T07:34:04.546Z,4.00
2019-05-09T07:36:38.331Z,2.80
2019-05-09T07:49:13.898Z,4.00
2019-05-09T07:52:21.841Z,5.40
2019-05-09T07:55:27.284Z,4.00
2019-05-09T07:58:14.101Z,3.33
2019-05-09T08:01:14.004Z,5.00
2019-05-09T08:03:46.166Z,4.80
2019-05-09T08:06:52.957Z,4.00
2019-05-09T08:09:24.011Z,5.00
2019-05-09T08:11:55.768Z,4.20
2019-05-09T08:15:16.488Z,4.00
2019-05-09T08:18:01.641Z,4.00
2019-05-09T08:20:33.447Z,4.60
2019-05-09T08:23:37.906Z,4.00
2019-05-09T08:25:57.897Z,7.00
2019-05-09T08:34:24.800Z,4.33
2019-05-09T08:36:57.802Z,4.00
2019-05-09T08:42:42.910Z,6.67
2019-05-09T08:45:33.670Z,4.80
2019-05-09T08:48:23.718Z,4.33
2019-05-09T09:09:01.879Z,3.33
2019-05-09T09:11:51.972Z,5.00
2019-05-09T09:14:27.712Z,4.00
2019-05-09T09:17:18.740Z,4.00
2019-05-09T09:20:21.434Z,5.00
2019-05-09T09:23:39.141Z,4.00
2019-05-09T09:38:03.297Z,4.00
2019-05-09T09:40:53.247Z,2.67
2019-05-09T09:43:58.368Z,4.33
2019-05-09T09:46:18.160Z,2.00
2019-05-09T09:48:53.927Z,4.00
2019-05-09T09:54:54.295Z,3.60
2019-05-09T09:57:33.563Z,2.80
2019-05-09T10:00:43.825Z,4.00
2019-05-09T10:03:18.772Z,2.67
2019-05-09T10:06:02.986Z,4.00
2019-05-09T10:08:58.037Z,3.60
2019-05-09T10:12:03.244Z,5.00
2019-05-09T10:17:48.158Z,4.00
2019-05-09T10:20:41.074Z,2.00
2019-05-09T10:23:20.053Z,1.40
2019-05-09T10:26:23.552Z,4.00
2019-05-09T10:29:17.700Z,2.00
2019-05-09T10:38:38.549Z,3.20
2019-05-09T10:41:37.598Z,2.00
2019-05-09T10:50:44.842Z,5.00
2019-05-09T10:53:43.399Z,4.00
2019-05-09T10:56:34.084Z,4.00
2019-05-09T11:02:37.888Z,1.60
2019-05-09T11:05:18.429Z,2.00
2019-05-09T11:11:14.897Z,2.00
2019-05-09T11:13:48.464Z,2.00
2019-05-09T11:17:10.826Z,2.40
2019-05-09T11:19:58.705Z,2.00
2019-05-09T11:25:50.183Z,2.00
2019-05-09T11:28:23.585Z,2.00
2019-05-09T11:31:08.371Z,3.60
2019-05-09T11:33:48.433Z,2.00
2019-05-09T11:36:25.884Z,3.60
2019-05-09T11:39:01.427Z,4.00
2019-05-09T11:41:39.995Z,2.40
2019-05-09T11:44:27.301Z,2.00
2019-05-09T11:47:45.202Z,4.00
2019-05-09T11:50:09.265Z,3.60
2019-05-09T11:55:51.017Z,4.00
2019-05-09T11:58:24.897Z,4.00
2019-05-09T12:00:56.701Z,2.00
2019-05-09T12:03:51.958Z,2.00
2019-05-09T12:06:28.840Z,2.67
2019-05-09T12:09:01.367Z,3.20
2019-05-09T12:11:32.368Z,2.00
2019-05-09T12:20:12.452Z,2.80
2019-05-09T12:22:39.241Z,4.00
2019-05-09T12:28:38.683Z,4.00
2019-05-09T12:31:21.681Z,2.00
2019-05-09T12:37:05.255Z,2.00
2019-05-09T12:40:20.081Z,4.00
2019-05-09T12:46:18.960Z,2.00
2019-05-09T12:49:34.839Z,2.67
2019-05-09T12:52:28.717Z,2.00
2019-05-09T12:56:09.776Z,4.00
2019-05-09T12:58:33.855Z,2.00
2019-05-09T13:01:40.955Z,3.60
2019-05-09T13:04:29.221Z,4.00
2019-05-09T13:07:01.442Z,4.00
2019-05-09T13:09:53.740Z,5.00
2019-05-09T13:12:25.570Z,4.00
2019-05-09T13:14:59.863Z,2.00
2019-05-09T13:17:52.394Z,2.00
2019-05-09T13:20:54.915Z,3.20
2019-05-09T13:23:30.466Z,3.20
2019-05-09T13:26:23.078Z,4.00
2019-05-09T13:32:55.134Z,2.00
2019-05-09T13:35:48.532Z,4.00
2019-05-09T13:41:25.992Z,4.60
2019-05-09T13:43:57.706Z,2.40
2019-05-09T13:46:21.804Z,3.60
2019-05-09T13:49:11.587Z,4.60
2019-05-09T13:51:29.942Z,2.80
2019-05-09T13:54:38.269Z,1.00
2019-05-09T14:09:41.413Z,2.00
2019-05-09T14:12:31.466Z,1.67
2019-05-09T14:17:58.402Z,2.00
2019-05-09T14:23:35.379Z,2.00
2019-05-09T14:26:05.106Z,3.33
2019-05-09T14:28:55.151Z,4.00
2019-05-09T14:31:31.842Z,2.00
2019-05-09T14:34:00.565Z,4.67
2019-05-09T14:42:19.676Z,4.00
2019-05-09T14:44:50.893Z,4.00
2019-05-09T14:47:42.691Z,2.00
2019-05-09T14:53:08.725Z,4.00
2019-05-09T14:58:51.068Z,2.00
2019-05-09T15:01:24.399Z,2.00
2019-05-09T15:04:15.383Z,3.60
2019-05-09T15:06:48.827Z,4.00
2019-05-09T15:09:40.323Z,2.00
2019-05-09T15:12:30.479Z,4.00
2019-05-09T15:15:38.259Z,2.00
2019-05-09T15:18:35.288Z,2.00
2019-05-09T15:24:38.740Z,2.00
2019-05-09T15:27:09.401Z,2.00
2019-05-09T15:30:24.128Z,2.00
2019-05-09T15:32:58.671Z,1.00
2019-05-09T15:35:51.220Z,1.00
2019-05-09T15:41:14.744Z,1.00
2019-05-09T15:43:48.534Z,1.40
2019-05-09T15:46:38.429Z,1.33
2019-05-09T15:49:49.946Z,1.20
2019-05-09T15:52:42.741Z,2.00
2019-05-09T15:55:17.819Z,2.00
2019-05-09T16:03:40.537Z,1.00
2019-05-09T16:06:32.650Z,1.00
2019-05-09T16:08:45.999Z,2.00
2019-05-09T16:14:48.664Z,1.80
2019-05-09T16:17:21.421Z,2.00
2019-05-09T16:20:12.158Z,2.00
2019-05-09T16:28:28.415Z,2.00
2019-05-09T16:30:59.562Z,2.67
2019-05-09T16:33:31.778Z,2.00
2019-05-09T16:36:43.026Z,2.00
2019-05-09T16:39:47.759Z,2.00
2019-05-09T16:42:50.058Z,1.00
2019-05-09T16:45:57.971Z,2.00
2019-05-09T16:48:47.653Z,3.00
2019-05-09T16:51:40.590Z,2.40
2019-05-09T16:54:13.993Z,3.00
2019-05-09T16:57:08.277Z,3.00
2019-05-09T17:02:51.227Z,3.00
2019-05-09T17:05:41.474Z,3.00
2019-05-09T17:08:44.776Z,3.00
2019-05-09T17:11:33.677Z,5.00
2019-05-09T17:14:28.838Z,4.33
2019-05-09T17:17:01.715Z,5.00
2019-05-09T17:19:37.821Z,4.60
2019-05-09T17:22:52.010Z,5.00
2019-05-09T17:25:42.467Z,5.00
2019-05-09T17:28:17.654Z,5.80
2019-05-09T17:31:01.063Z,3.00
2019-05-09T17:34:01.348Z,2.00
2019-05-09T17:36:38.476Z,2.20
2019-05-09T17:39:29.684Z,2.00
2019-05-09T17:48:18.398Z,3.00
2019-05-09T17:54:18.102Z,2.00
2019-05-09T17:59:52.175Z,3.40
2019-05-09T18:02:17.559Z,2.40
2019-05-09T18:05:08.899Z,2.80
2019-05-09T18:10:44.652Z,3.00
2019-05-09T18:16:22.241Z,4.00
2019-05-09T18:21:58.923Z,2.00
2019-05-09T18:24:50.862Z,5.33
2019-05-09T18:27:39.654Z,2.67
2019-05-09T18:33:07.575Z,4.00
2019-05-09T18:36:10.149Z,5.00
2019-05-09T18:39:00.120Z,4.67
2019-05-09T18:41:31.434Z,4.00
2019-05-09T18:44:21.663Z,5.00
2019-05-09T18:50:28.958Z,4.20
2019-05-09T18:53:01.337Z,4.00
2019-05-09T18:58:24.091Z,5.00
2019-05-09T19:03:49.572Z,4.00
2019-05-09T19:12:35.076Z,4.00
2019-05-09T19:19:11.404Z,5.00
2019-05-09T19:24:52.366Z,4.67
2019-05-09T19:30:15.602Z,4.00
2019-05-09T19:36:32.050Z,2.00
2019-05-09T19:42:27.293Z,4.20
2019-05-09T19:45:38.464Z,5.00
2019-05-09T19:54:59.145Z,5.40
2019-05-09T20:03:50.172Z,5.00
2019-05-09T20:06:23.290Z,6.40
2019-05-09T20:08:59.272Z,7.00
2019-05-09T20:12:08.357Z,6.33
2019-05-09T20:18:11.441Z,7.00
2019-05-09T20:21:02.739Z,5.40
2019-05-09T20:26:43.422Z,5.00
2019-05-09T20:31:52.593Z,5.00
2019-05-09T20:34:23.970Z,7.00
2019-05-09T20:36:56.243Z,8.80
2019-05-09T20:39:30.788Z,5.00
2019-05-09T20:45:39.134Z,6.67
2019-05-09T20:48:14.064Z,8.75
2019-05-09T20:54:01.147Z,7.00
2019-05-09T20:56:32.509Z,10.33
2019-05-09T21:05:16.904Z,9.33
2019-05-09T21:08:09.505Z,11.25
2019-05-09T21:10:41.784Z,10.00
2019-05-09T21:13:13.915Z,8.33
2019-05-09T21:15:53.235Z,7.67
2019-05-09T21:18:43.973Z,5.40
2019-05-09T21:21:16.415Z,7.00
2019-05-09T21:26:50.324Z,7.00
2019-05-09T21:29:22.732Z,7.00
2019-05-09T21:31:56.564Z,7.67
2019-05-09T21:34:59.173Z,7.80
2019-05-09T21:37:31.389Z,4.40
2019-05-09T21:40:02.779Z,7.33
2019-05-09T21:42:34.322Z,7.00
2019-05-09T21:45:24.524Z,5.00
2019-05-09T21:48:14.446Z,4.67
2019-05-09T21:51:17.450Z,4.00
2019-05-09T21:54:20.906Z,5.00
2019-05-09T21:57:14.233Z,4.00
2019-05-09T21:59:46.320Z,2.00
2019-05-09T22:02:18.318Z,2.00
2019-05-09T22:04:50.851Z,2.00
2019-05-09T22:08:01.992Z,2.00
2019-05-09T22:10:35.974Z,2.00
2019-05-09T22:13:09.866Z,2.40
2019-05-09T22:15:43.676Z,3.33
2019-05-09T22:18:28.841Z,2.00
2019-05-09T22:21:22.893Z,2.00
2019-05-09T22:23:56.891Z,2.00
2019-05-09T22:26:45.553Z,3.33
2019-05-09T22:29:16.842Z,1.33
2019-05-09T22:34:39.555Z,2.60
2019-05-09T22:37:11.517Z,2.40
2019-05-09T22:40:02.138Z,2.00
2019-05-09T22:42:52.239Z,2.00
2019-05-09T22:45:43.973Z,1.00
2019-05-09T22:48:30.129Z,2.00
2019-05-09T22:50:48.833Z,2.00
2019-05-09T22:54:11.522Z,2.00
2019-05-09T22:57:23.145Z,1.20
2019-05-09T22:59:46.597Z,2.00
2019-05-09T23:05:38.843Z,2.40
2019-05-09T23:08:11.086Z,2.00
2019-05-09T23:10:42.291Z,1.67
2019-05-09T23:16:05.741Z,3.20
2019-05-09T23:18:36.962Z,1.67
2019-05-09T23:21:07.979Z,2.67
2019-05-09T23:24:28.116Z,2.80
2019-05-09T23:26:50.420Z,1.33
2019-05-09T23:29:21.607Z,2.00
2019-05-09T23:32:12.222Z,2.00
2019-05-09T23:34:43.990Z,2.00
2019-05-09T23:37:55.500Z,2.40
2019-05-09T23:43:40.136Z,2.33
2019-05-09T23:46:12.131Z,4.00
2019-05-09T23:48:44.315Z,2.00
2019-05-09T23:51:54.275Z,2.00
2019-05-09T23:54:45.961Z,3.40
2019-05-09T23:57:30.013Z,1.80
